sensor_id;sensor_type;location;lat;lon;timestamp;P1;P2;P0
60645;PMS5003;46462;32.608;-117.032;2024-01-11T00:00:44;1;1;
60645;PMS5003;46462;32.608;-117.032;2024-01-11T00:03:15;1;1;
60645;PMS5003;46462;32.608;-117.032;2024-01-11T00:05:46;3;2;
60645;PMS5003;46462;32.608;-117.032;2024-01-11T00:08:17;1;1;
60645;PMS5003;46462;32.608;-117.032;2024-01-11T00:10:47;1;1;
60645;PMS5003;46462;32.608;-117.032;2024-01-11T00:13:18;1;1;
60645;PMS5003;46462;32.608;-117.032;2024-01-11T00:15:49;0;0;
60645;PMS5003;46462;32.608;-117.032;2024-01-11T00:18:19;1;1;
60645;PMS5003;46462;32.608;-117.032;2024-01-11T00:20:50;1;1;
60645;PMS5003;46462;32.608;-117.032;2024-01-11T00:23:21;1;1;
60645;PMS5003;46462;32.608;-117.032;2024-01-11T00:25:52;2;1;
60645;PMS5003;46462;32.608;-117.032;2024-01-11T00:28:22;1;1;
60645;PMS5003;46462;32.608;-117.032;2024-01-11T00:30:53;0;0;
60645;PMS5003;46462;32.608;-117.032;2024-01-11T00:33:24;1;1;
60645;PMS5003;46462;32.608;-117.032;2024-01-11T00:35:55;2;1;
60645;PMS5003;46462;32.608;-117.032;2024-01-11T00:38:25;0;0;
60645;PMS5003;46462;32.608;-117.032;2024-01-11T00:40:56;2;1;
60645;PMS5003;46462;32.608;-117.032;2024-01-11T00:43:27;1;1;
60645;PMS5003;46462;32.608;-117.032;2024-01-11T00:45:58;1;1;
60645;PMS5003;46462;32.608;-117.032;2024-01-11T00:48:28;2;2;
60645;PMS5003;46462;32.608;-117.032;2024-01-11T00:50:59;2;1;
60645;PMS5003;46462;32.608;-117.032;2024-01-11T00:53:30;1;1;
60645;PMS5003;46462;32.608;-117.032;2024-01-11T00:56:00;2;2;
60645;PMS5003;46462;32.608;-117.032;2024-01-11T00:58:31;2;2;
60645;PMS5003;46462;32.608;-117.032;2024-01-11T01:01:02;2;2;
60645;PMS5003;46462;32.608;-117.032;2024-01-11T01:03:33;1;1;
60645;PMS5003;46462;32.608;-117.032;2024-01-11T01:06:04;1;1;
60645;PMS5003;46462;32.608;-117.032;2024-01-11T01:08:34;1;1;
60645;PMS5003;46462;32.608;-117.032;2024-01-11T01:11:05;3;2;
60645;PMS5003;46462;32.608;-117.032;2024-01-11T01:13:36;4;3;
60645;PMS5003;46462;32.608;-117.032;2024-01-11T01:16:07;2;2;
60645;PMS5003;46462;32.608;-117.032;2024-01-11T01:18:37;3;3;
60645;PMS5003;46462;32.608;-117.032;2024-01-11T01:21:08;4;3;
60645;PMS5003;46462;32.608;-117.032;2024-01-11T01:23:39;3;3;
60645;PMS5003;46462;32.608;-117.032;2024-01-11T01:26:09;3;3;
60645;PMS5003;46462;32.608;-117.032;2024-01-11T01:28:40;0;0;
60645;PMS5003;46462;32.608;-117.032;2024-01-11T01:31:11;1;1;
60645;PMS5003;46462;32.608;-117.032;2024-01-11T01:33:41;3;3;
60645;PMS5003;46462;32.608;-117.032;2024-01-11T01:36:12;2;2;
60645;PMS5003;46462;32.608;-117.032;2024-01-11T01:38:42;3;2;
60645;PMS5003;46462;32.608;-117.032;2024-01-11T01:41:13;6;6;
60645;PMS5003;46462;32.608;-117.032;2024-01-11T01:43:43;3;3;
60645;PMS5003;46462;32.608;-117.032;2024-01-11T01:46:14;4;4;
60645;PMS5003;46462;32.608;-117.032;2024-01-11T01:48:45;3;3;
60645;PMS5003;46462;32.608;-117.032;2024-01-11T01:51:15;1;1;
60645;PMS5003;46462;32.608;-117.032;2024-01-11T01:53:45;4;3;
60645;PMS5003;46462;32.608;-117.032;2024-01-11T01:56:16;6;5;
60645;PMS5003;46462;32.608;-117.032;2024-01-11T01:58:47;1;1;
60645;PMS5003;46462;32.608;-117.032;2024-01-11T02:01:18;4;3;
60645;PMS5003;46462;32.608;-117.032;2024-01-11T02:03:49;4;4;
60645;PMS5003;46462;32.608;-117.032;2024-01-11T02:06:19;4;2;
60645;PMS5003;46462;32.608;-117.032;2024-01-11T02:08:51;2;2;
60645;PMS5003;46462;32.608;-117.032;2024-01-11T02:11:21;2;2;
60645;PMS5003;46462;32.608;-117.032;2024-01-11T02:13:51;3;3;
60645;PMS5003;46462;32.608;-117.032;2024-01-11T02:16:22;1;1;
60645;PMS5003;46462;32.608;-117.032;2024-01-11T02:18:53;2;2;
60645;PMS5003;46462;32.608;-117.032;2024-01-11T02:21:24;2;2;
60645;PMS5003;46462;32.608;-117.032;2024-01-11T02:23:58;2;2;
60645;PMS5003;46462;32.608;-117.032;2024-01-11T02:26:25;4;4;
60645;PMS5003;46462;32.608;-117.032;2024-01-11T02:28:56;4;3;
60645;PMS5003;46462;32.608;-117.032;2024-01-11T02:31:26;3;3;
60645;PMS5003;46462;32.608;-117.032;2024-01-11T02:33:57;6;6;
60645;PMS5003;46462;32.608;-117.032;2024-01-11T02:36:27;6;6;
60645;PMS5003;46462;32.608;-117.032;2024-01-11T02:38:57;4;3;
60645;PMS5003;46462;32.608;-117.032;2024-01-11T02:41:28;3;3;
60645;PMS5003;46462;32.608;-117.032;2024-01-11T02:43:59;3;2;
60645;PMS5003;46462;32.608;-117.032;2024-01-11T02:46:29;4;3;
60645;PMS5003;46462;32.608;-117.032;2024-01-11T02:49:00;5;3;
60645;PMS5003;46462;32.608;-117.032;2024-01-11T02:51:30;5;4;
60645;PMS5003;46462;32.608;-117.032;2024-01-11T02:54:01;5;5;
60645;PMS5003;46462;32.608;-117.032;2024-01-11T02:56:32;3;2;
60645;PMS5003;46462;32.608;-117.032;2024-01-11T02:59:03;2;2;
60645;PMS5003;46462;32.608;-117.032;2024-01-11T03:01:33;3;3;
60645;PMS5003;46462;32.608;-117.032;2024-01-11T03:04:05;2;2;
60645;PMS5003;46462;32.608;-117.032;2024-01-11T03:06:35;5;3;
60645;PMS5003;46462;32.608;-117.032;2024-01-11T03:09:05;3;3;
60645;PMS5003;46462;32.608;-117.032;2024-01-11T03:11:36;4;4;
60645;PMS5003;46462;32.608;-117.032;2024-01-11T03:14:07;3;3;
60645;PMS5003;46462;32.608;-117.032;2024-01-11T03:16:38;6;6;
60645;PMS5003;46462;32.608;-117.032;2024-01-11T03:19:09;4;3;
60645;PMS5003;46462;32.608;-117.032;2024-01-11T03:21:41;3;3;
60645;PMS5003;46462;32.608;-117.032;2024-01-11T03:24:10;3;3;
60645;PMS5003;46462;32.608;-117.032;2024-01-11T03:26:41;3;3;
60645;PMS5003;46462;32.608;-117.032;2024-01-11T03:29:11;3;3;
60645;PMS5003;46462;32.608;-117.032;2024-01-11T03:31:42;3;3;
60645;PMS5003;46462;32.608;-117.032;2024-01-11T03:34:13;4;3;
60645;PMS5003;46462;32.608;-117.032;2024-01-11T03:36:44;5;5;
60645;PMS5003;46462;32.608;-117.032;2024-01-11T03:39:14;7;4;
60645;PMS5003;46462;32.608;-117.032;2024-01-11T03:41:45;3;3;
60645;PMS5003;46462;32.608;-117.032;2024-01-11T03:44:16;4;3;
60645;PMS5003;46462;32.608;-117.032;2024-01-11T03:46:46;6;5;
60645;PMS5003;46462;32.608;-117.032;2024-01-11T03:49:17;3;3;
60645;PMS5003;46462;32.608;-117.032;2024-01-11T03:51:48;5;5;
60645;PMS5003;46462;32.608;-117.032;2024-01-11T03:54:19;2;2;
60645;PMS5003;46462;32.608;-117.032;2024-01-11T03:56:49;5;3;
60645;PMS5003;46462;32.608;-117.032;2024-01-11T03:59:20;3;3;
60645;PMS5003;46462;32.608;-117.032;2024-01-11T04:01:51;3;3;
60645;PMS5003;46462;32.608;-117.032;2024-01-11T04:04:21;4;4;
60645;PMS5003;46462;32.608;-117.032;2024-01-11T04:06:52;7;6;
60645;PMS5003;46462;32.608;-117.032;2024-01-11T04:09:23;3;3;
60645;PMS5003;46462;32.608;-117.032;2024-01-11T04:11:53;4;3;
60645;PMS5003;46462;32.608;-117.032;2024-01-11T04:14:23;5;4;
60645;PMS5003;46462;32.608;-117.032;2024-01-11T04:16:54;5;4;
60645;PMS5003;46462;32.608;-117.032;2024-01-11T04:19:25;8;4;
60645;PMS5003;46462;32.608;-117.032;2024-01-11T04:21:55;5;5;
60645;PMS5003;46462;32.608;-117.032;2024-01-11T04:24:26;5;5;
60645;PMS5003;46462;32.608;-117.032;2024-01-11T04:26:57;4;3;
60645;PMS5003;46462;32.608;-117.032;2024-01-11T04:29:28;5;4;
60645;PMS5003;46462;32.608;-117.032;2024-01-11T04:31:58;8;6;
60645;PMS5003;46462;32.608;-117.032;2024-01-11T04:34:28;6;5;
60645;PMS5003;46462;32.608;-117.032;2024-01-11T04:36:59;6;5;
60645;PMS5003;46462;32.608;-117.032;2024-01-11T04:39:30;6;5;
60645;PMS5003;46462;32.608;-117.032;2024-01-11T04:42:00;6;5;
60645;PMS5003;46462;32.608;-117.032;2024-01-11T04:44:31;7;4;
60645;PMS5003;46462;32.608;-117.032;2024-01-11T04:47:02;5;4;
60645;PMS5003;46462;32.608;-117.032;2024-01-11T04:49:32;7;5;
60645;PMS5003;46462;32.608;-117.032;2024-01-11T04:52:03;6;5;
60645;PMS5003;46462;32.608;-117.032;2024-01-11T04:54:34;4;4;
60645;PMS5003;46462;32.608;-117.032;2024-01-11T04:57:04;6;6;
60645;PMS5003;46462;32.608;-117.032;2024-01-11T04:59:35;4;4;
60645;PMS5003;46462;32.608;-117.032;2024-01-11T05:02:06;7;7;
60645;PMS5003;46462;32.608;-117.032;2024-01-11T05:04:37;4;4;
60645;PMS5003;46462;32.608;-117.032;2024-01-11T05:07:08;4;4;
60645;PMS5003;46462;32.608;-117.032;2024-01-11T05:09:38;7;6;
60645;PMS5003;46462;32.608;-117.032;2024-01-11T05:12:09;7;7;
60645;PMS5003;46462;32.608;-117.032;2024-01-11T05:14:40;5;5;
60645;PMS5003;46462;32.608;-117.032;2024-01-11T05:17:10;5;4;
60645;PMS5003;46462;32.608;-117.032;2024-01-11T05:19:41;8;6;
60645;PMS5003;46462;32.608;-117.032;2024-01-11T05:22:11;7;5;
60645;PMS5003;46462;32.608;-117.032;2024-01-11T05:24:42;7;7;
60645;PMS5003;46462;32.608;-117.032;2024-01-11T05:27:12;9;8;
60645;PMS5003;46462;32.608;-117.032;2024-01-11T05:29:43;5;4;
60645;PMS5003;46462;32.608;-117.032;2024-01-11T05:32:14;8;7;
60645;PMS5003;46462;32.608;-117.032;2024-01-11T05:34:44;5;4;
60645;PMS5003;46462;32.608;-117.032;2024-01-11T05:37:15;6;5;
60645;PMS5003;46462;32.608;-117.032;2024-01-11T05:39:46;5;4;
60645;PMS5003;46462;32.608;-117.032;2024-01-11T05:42:17;7;6;
60645;PMS5003;46462;32.608;-117.032;2024-01-11T05:44:47;8;7;
60645;PMS5003;46462;32.608;-117.032;2024-01-11T05:47:18;6;6;
60645;PMS5003;46462;32.608;-117.032;2024-01-11T05:49:48;5;5;
60645;PMS5003;46462;32.608;-117.032;2024-01-11T05:52:19;4;4;
60645;PMS5003;46462;32.608;-117.032;2024-01-11T05:54:50;7;5;
60645;PMS5003;46462;32.608;-117.032;2024-01-11T05:57:21;6;5;
60645;PMS5003;46462;32.608;-117.032;2024-01-11T05:59:51;8;6;
60645;PMS5003;46462;32.608;-117.032;2024-01-11T06:02:22;5;5;
60645;PMS5003;46462;32.608;-117.032;2024-01-11T06:04:52;5;5;
60645;PMS5003;46462;32.608;-117.032;2024-01-11T06:07:23;5;4;
60645;PMS5003;46462;32.608;-117.032;2024-01-11T06:09:54;3;3;
60645;PMS5003;46462;32.608;-117.032;2024-01-11T06:12:25;8;7;
60645;PMS5003;46462;32.608;-117.032;2024-01-11T06:14:55;10;6;
60645;PMS5003;46462;32.608;-117.032;2024-01-11T06:17:26;5;5;
60645;PMS5003;46462;32.608;-117.032;2024-01-11T06:19:57;5;4;
60645;PMS5003;46462;32.608;-117.032;2024-01-11T06:22:28;8;7;
60645;PMS5003;46462;32.608;-117.032;2024-01-11T06:24:58;6;3;
60645;PMS5003;46462;32.608;-117.032;2024-01-11T06:27:29;4;3;
60645;PMS5003;46462;32.608;-117.032;2024-01-11T06:29:59;4;4;
60645;PMS5003;46462;32.608;-117.032;2024-01-11T06:32:30;4;4;
60645;PMS5003;46462;32.608;-117.032;2024-01-11T06:35:01;4;3;
60645;PMS5003;46462;32.608;-117.032;2024-01-11T06:37:32;7;5;
60645;PMS5003;46462;32.608;-117.032;2024-01-11T06:40:06;5;4;
60645;PMS5003;46462;32.608;-117.032;2024-01-11T06:42:36;5;5;
60645;PMS5003;46462;32.608;-117.032;2024-01-11T06:45:06;6;4;
60645;PMS5003;46462;32.608;-117.032;2024-01-11T06:47:36;5;4;
60645;PMS5003;46462;32.608;-117.032;2024-01-11T06:50:07;7;7;
60645;PMS5003;46462;32.608;-117.032;2024-01-11T06:52:37;7;6;
60645;PMS5003;46462;32.608;-117.032;2024-01-11T06:55:08;5;3;
60645;PMS5003;46462;32.608;-117.032;2024-01-11T06:57:39;7;5;
60645;PMS5003;46462;32.608;-117.032;2024-01-11T07:00:10;4;4;
60645;PMS5003;46462;32.608;-117.032;2024-01-11T07:02:40;5;4;
60645;PMS5003;46462;32.608;-117.032;2024-01-11T07:05:11;4;4;
60645;PMS5003;46462;32.608;-117.032;2024-01-11T07:07:42;5;5;
60645;PMS5003;46462;32.608;-117.032;2024-01-11T07:10:12;2;2;
60645;PMS5003;46462;32.608;-117.032;2024-01-11T07:12:42;6;5;
60645;PMS5003;46462;32.608;-117.032;2024-01-11T07:15:13;5;4;
60645;PMS5003;46462;32.608;-117.032;2024-01-11T07:17:44;5;3;
60645;PMS5003;46462;32.608;-117.032;2024-01-11T07:20:15;4;3;
60645;PMS5003;46462;32.608;-117.032;2024-01-11T07:22:45;3;3;
60645;PMS5003;46462;32.608;-117.032;2024-01-11T07:25:16;6;4;
60645;PMS5003;46462;32.608;-117.032;2024-01-11T07:27:47;5;4;
60645;PMS5003;46462;32.608;-117.032;2024-01-11T07:30:18;4;3;
60645;PMS5003;46462;32.608;-117.032;2024-01-11T07:32:48;5;4;
60645;PMS5003;46462;32.608;-117.032;2024-01-11T07:35:19;3;2;
60645;PMS5003;46462;32.608;-117.032;2024-01-11T07:37:50;4;4;
60645;PMS5003;46462;32.608;-117.032;2024-01-11T07:40:21;3;3;
60645;PMS5003;46462;32.608;-117.032;2024-01-11T07:42:51;2;2;
60645;PMS5003;46462;32.608;-117.032;2024-01-11T07:45:22;3;3;
60645;PMS5003;46462;32.608;-117.032;2024-01-11T07:47:53;3;3;
60645;PMS5003;46462;32.608;-117.032;2024-01-11T07:50:24;2;2;
60645;PMS5003;46462;32.608;-117.032;2024-01-11T07:52:55;4;2;
60645;PMS5003;46462;32.608;-117.032;2024-01-11T07:55:26;2;1;
60645;PMS5003;46462;32.608;-117.032;2024-01-11T07:57:56;1;1;
60645;PMS5003;46462;32.608;-117.032;2024-01-11T08:00:27;3;3;
60645;PMS5003;46462;32.608;-117.032;2024-01-11T08:02:57;2;2;
60645;PMS5003;46462;32.608;-117.032;2024-01-11T08:05:28;5;3;
60645;PMS5003;46462;32.608;-117.032;2024-01-11T08:07:59;5;4;
60645;PMS5003;46462;32.608;-117.032;2024-01-11T08:10:30;5;4;
60645;PMS5003;46462;32.608;-117.032;2024-01-11T08:13:01;4;3;
60645;PMS5003;46462;32.608;-117.032;2024-01-11T08:15:31;4;3;
60645;PMS5003;46462;32.608;-117.032;2024-01-11T08:18:02;4;3;
60645;PMS5003;46462;32.608;-117.032;2024-01-11T08:20:33;5;4;
60645;PMS5003;46462;32.608;-117.032;2024-01-11T08:23:04;3;3;
60645;PMS5003;46462;32.608;-117.032;2024-01-11T08:25:35;4;2;
60645;PMS5003;46462;32.608;-117.032;2024-01-11T08:28:05;5;4;
60645;PMS5003;46462;32.608;-117.032;2024-01-11T08:30:36;3;3;
60645;PMS5003;46462;32.608;-117.032;2024-01-11T08:33:07;2;2;
60645;PMS5003;46462;32.608;-117.032;2024-01-11T08:35:38;3;3;
60645;PMS5003;46462;32.608;-117.032;2024-01-11T08:38:09;3;3;
60645;PMS5003;46462;32.608;-117.032;2024-01-11T08:40:40;4;3;
60645;PMS5003;46462;32.608;-117.032;2024-01-11T08:43:10;3;3;
60645;PMS5003;46462;32.608;-117.032;2024-01-11T08:45:41;5;4;
60645;PMS5003;46462;32.608;-117.032;2024-01-11T08:48:12;4;4;
60645;PMS5003;46462;32.608;-117.032;2024-01-11T08:50:42;3;3;
60645;PMS5003;46462;32.608;-117.032;2024-01-11T08:53:13;1;1;
60645;PMS5003;46462;32.608;-117.032;2024-01-11T08:55:44;2;2;
60645;PMS5003;46462;32.608;-117.032;2024-01-11T08:58:15;1;1;
60645;PMS5003;46462;32.608;-117.032;2024-01-11T09:00:45;4;3;
60645;PMS5003;46462;32.608;-117.032;2024-01-11T09:03:16;1;1;
60645;PMS5003;46462;32.608;-117.032;2024-01-11T09:05:47;2;2;
60645;PMS5003;46462;32.608;-117.032;2024-01-11T09:08:18;1;1;
60645;PMS5003;46462;32.608;-117.032;2024-01-11T09:10:49;1;0;
60645;PMS5003;46462;32.608;-117.032;2024-01-11T09:13:19;4;3;
60645;PMS5003;46462;32.608;-117.032;2024-01-11T09:15:50;2;1;
60645;PMS5003;46462;32.608;-117.032;2024-01-11T09:18:21;3;2;
60645;PMS5003;46462;32.608;-117.032;2024-01-11T09:20:52;2;2;
60645;PMS5003;46462;32.608;-117.032;2024-01-11T09:23:23;3;3;
60645;PMS5003;46462;32.608;-117.032;2024-01-11T09:25:53;3;2;
60645;PMS5003;46462;32.608;-117.032;2024-01-11T09:28:24;2;2;
60645;PMS5003;46462;32.608;-117.032;2024-01-11T09:30:55;1;1;
60645;PMS5003;46462;32.608;-117.032;2024-01-11T09:33:26;2;2;
60645;PMS5003;46462;32.608;-117.032;2024-01-11T09:35:57;1;1;
60645;PMS5003;46462;32.608;-117.032;2024-01-11T09:38:27;2;2;
60645;PMS5003;46462;32.608;-117.032;2024-01-11T09:40:59;3;3;
60645;PMS5003;46462;32.608;-117.032;2024-01-11T09:43:28;1;1;
60645;PMS5003;46462;32.608;-117.032;2024-01-11T09:45:59;2;2;
60645;PMS5003;46462;32.608;-117.032;2024-01-11T09:48:30;0;0;
60645;PMS5003;46462;32.608;-117.032;2024-01-11T09:51:01;2;1;
60645;PMS5003;46462;32.608;-117.032;2024-01-11T09:53:32;2;1;
60645;PMS5003;46462;32.608;-117.032;2024-01-11T09:56:02;2;1;
60645;PMS5003;46462;32.608;-117.032;2024-01-11T09:58:33;2;2;
60645;PMS5003;46462;32.608;-117.032;2024-01-11T10:01:06;4;4;
60645;PMS5003;46462;32.608;-117.032;2024-01-11T10:03:35;3;3;
60645;PMS5003;46462;32.608;-117.032;2024-01-11T10:06:06;2;2;
60645;PMS5003;46462;32.608;-117.032;2024-01-11T10:08:36;5;3;
60645;PMS5003;46462;32.608;-117.032;2024-01-11T10:11:07;1;1;
60645;PMS5003;46462;32.608;-117.032;2024-01-11T10:13:38;4;3;
60645;PMS5003;46462;32.608;-117.032;2024-01-11T10:16:10;3;2;
60645;PMS5003;46462;32.608;-117.032;2024-01-11T10:18:40;0;0;
60645;PMS5003;46462;32.608;-117.032;2024-01-11T10:21:11;3;2;
60645;PMS5003;46462;32.608;-117.032;2024-01-11T10:23:41;5;4;
60645;PMS5003;46462;32.608;-117.032;2024-01-11T10:26:12;2;2;
60645;PMS5003;46462;32.608;-117.032;2024-01-11T10:28:44;2;2;
60645;PMS5003;46462;32.608;-117.032;2024-01-11T10:31:14;4;4;
60645;PMS5003;46462;32.608;-117.032;2024-01-11T10:33:45;2;2;
60645;PMS5003;46462;32.608;-117.032;2024-01-11T10:36:16;1;1;
60645;PMS5003;46462;32.608;-117.032;2024-01-11T10:38:47;2;2;
60645;PMS5003;46462;32.608;-117.032;2024-01-11T10:41:18;2;2;
60645;PMS5003;46462;32.608;-117.032;2024-01-11T10:43:48;6;5;
60645;PMS5003;46462;32.608;-117.032;2024-01-11T10:46:19;4;1;
60645;PMS5003;46462;32.608;-117.032;2024-01-11T10:48:49;1;1;
60645;PMS5003;46462;32.608;-117.032;2024-01-11T10:51:20;1;1;
60645;PMS5003;46462;32.608;-117.032;2024-01-11T10:53:51;2;2;
60645;PMS5003;46462;32.608;-117.032;2024-01-11T10:56:22;3;2;
60645;PMS5003;46462;32.608;-117.032;2024-01-11T10:58:53;3;3;
60645;PMS5003;46462;32.608;-117.032;2024-01-11T11:01:23;2;2;
60645;PMS5003;46462;32.608;-117.032;2024-01-11T11:03:54;3;2;
60645;PMS5003;46462;32.608;-117.032;2024-01-11T11:06:26;2;2;
60645;PMS5003;46462;32.608;-117.032;2024-01-11T11:08:56;2;1;
60645;PMS5003;46462;32.608;-117.032;2024-01-11T11:11:27;1;1;
60645;PMS5003;46462;32.608;-117.032;2024-01-11T11:13:58;2;2;
60645;PMS5003;46462;32.608;-117.032;2024-01-11T11:16:28;3;3;
60645;PMS5003;46462;32.608;-117.032;2024-01-11T11:18:59;2;2;
60645;PMS5003;46462;32.608;-117.032;2024-01-11T11:21:30;3;3;
60645;PMS5003;46462;32.608;-117.032;2024-01-11T11:24:01;1;1;
60645;PMS5003;46462;32.608;-117.032;2024-01-11T11:26:31;2;2;
60645;PMS5003;46462;32.608;-117.032;2024-01-11T11:29:03;2;2;
60645;PMS5003;46462;32.608;-117.032;2024-01-11T11:31:35;5;3;
60645;PMS5003;46462;32.608;-117.032;2024-01-11T11:34:04;1;1;
60645;PMS5003;46462;32.608;-117.032;2024-01-11T11:36:35;1;1;
60645;PMS5003;46462;32.608;-117.032;2024-01-11T11:39:06;1;1;
60645;PMS5003;46462;32.608;-117.032;2024-01-11T11:41:36;3;3;
60645;PMS5003;46462;32.608;-117.032;2024-01-11T11:44:07;3;3;
60645;PMS5003;46462;32.608;-117.032;2024-01-11T11:46:38;3;3;
60645;PMS5003;46462;32.608;-117.032;2024-01-11T11:49:09;2;2;
60645;PMS5003;46462;32.608;-117.032;2024-01-11T11:51:40;6;3;
60645;PMS5003;46462;32.608;-117.032;2024-01-11T11:54:10;2;2;
60645;PMS5003;46462;32.608;-117.032;2024-01-11T11:56:41;2;2;
60645;PMS5003;46462;32.608;-117.032;2024-01-11T11:59:12;3;3;
60645;PMS5003;46462;32.608;-117.032;2024-01-11T12:01:43;2;1;
60645;PMS5003;46462;32.608;-117.032;2024-01-11T12:04:13;1;1;
60645;PMS5003;46462;32.608;-117.032;2024-01-11T12:06:44;2;1;
60645;PMS5003;46462;32.608;-117.032;2024-01-11T12:09:18;4;2;
60645;PMS5003;46462;32.608;-117.032;2024-01-11T12:11:46;2;1;
60645;PMS5003;46462;32.608;-117.032;2024-01-11T12:14:17;2;2;
60645;PMS5003;46462;32.608;-117.032;2024-01-11T12:19:18;3;3;
60645;PMS5003;46462;32.608;-117.032;2024-01-11T12:21:49;2;1;
60645;PMS5003;46462;32.608;-117.032;2024-01-11T12:24:20;2;2;
60645;PMS5003;46462;32.608;-117.032;2024-01-11T12:26:51;2;2;
60645;PMS5003;46462;32.608;-117.032;2024-01-11T12:29:21;2;2;
60645;PMS5003;46462;32.608;-117.032;2024-01-11T12:31:52;2;2;
60645;PMS5003;46462;32.608;-117.032;2024-01-11T12:34:23;1;1;
60645;PMS5003;46462;32.608;-117.032;2024-01-11T12:36:54;2;2;
60645;PMS5003;46462;32.608;-117.032;2024-01-11T12:39:25;0;0;
60645;PMS5003;46462;32.608;-117.032;2024-01-11T12:41:56;0;0;
60645;PMS5003;46462;32.608;-117.032;2024-01-11T12:44:26;1;1;
60645;PMS5003;46462;32.608;-117.032;2024-01-11T12:46:56;5;3;
60645;PMS5003;46462;32.608;-117.032;2024-01-11T12:49:27;2;2;
60645;PMS5003;46462;32.608;-117.032;2024-01-11T12:51:57;3;2;
60645;PMS5003;46462;32.608;-117.032;2024-01-11T12:54:28;2;2;
60645;PMS5003;46462;32.608;-117.032;2024-01-11T12:57:00;3;3;
60645;PMS5003;46462;32.608;-117.032;2024-01-11T12:59:30;4;2;
60645;PMS5003;46462;32.608;-117.032;2024-01-11T13:02:01;1;1;
60645;PMS5003;46462;32.608;-117.032;2024-01-11T13:04:31;2;2;
60645;PMS5003;46462;32.608;-117.032;2024-01-11T13:07:02;2;1;
60645;PMS5003;46462;32.608;-117.032;2024-01-11T13:09:33;2;2;
60645;PMS5003;46462;32.608;-117.032;2024-01-11T13:12:04;3;2;
60645;PMS5003;46462;32.608;-117.032;2024-01-11T13:14:35;2;2;
60645;PMS5003;46462;32.608;-117.032;2024-01-11T13:17:06;1;1;
60645;PMS5003;46462;32.608;-117.032;2024-01-11T13:19:36;4;3;
60645;PMS5003;46462;32.608;-117.032;2024-01-11T13:22:07;1;1;
60645;PMS5003;46462;32.608;-117.032;2024-01-11T13:24:38;3;3;
60645;PMS5003;46462;32.608;-117.032;2024-01-11T13:27:09;1;1;
60645;PMS5003;46462;32.608;-117.032;2024-01-11T13:29:39;4;3;
60645;PMS5003;46462;32.608;-117.032;2024-01-11T13:32:10;2;2;
60645;PMS5003;46462;32.608;-117.032;2024-01-11T13:34:40;2;1;
60645;PMS5003;46462;32.608;-117.032;2024-01-11T13:37:11;1;1;
60645;PMS5003;46462;32.608;-117.032;2024-01-11T13:39:42;1;1;
60645;PMS5003;46462;32.608;-117.032;2024-01-11T13:42:13;2;2;
60645;PMS5003;46462;32.608;-117.032;2024-01-11T13:44:43;2;2;
60645;PMS5003;46462;32.608;-117.032;2024-01-11T13:47:14;4;4;
60645;PMS5003;46462;32.608;-117.032;2024-01-11T13:49:45;1;1;
60645;PMS5003;46462;32.608;-117.032;2024-01-11T13:52:16;1;1;
60645;PMS5003;46462;32.608;-117.032;2024-01-11T13:54:47;2;2;
60645;PMS5003;46462;32.608;-117.032;2024-01-11T13:57:17;2;2;
60645;PMS5003;46462;32.608;-117.032;2024-01-11T13:59:48;3;3;
60645;PMS5003;46462;32.608;-117.032;2024-01-11T14:02:19;2;2;
60645;PMS5003;46462;32.608;-117.032;2024-01-11T14:04:50;2;1;
60645;PMS5003;46462;32.608;-117.032;2024-01-11T14:07:21;2;1;
60645;PMS5003;46462;32.608;-117.032;2024-01-11T14:09:52;3;3;
60645;PMS5003;46462;32.608;-117.032;2024-01-11T14:12:22;3;1;
60645;PMS5003;46462;32.608;-117.032;2024-01-11T14:14:53;2;1;
60645;PMS5003;46462;32.608;-117.032;2024-01-11T14:17:24;2;2;
60645;PMS5003;46462;32.608;-117.032;2024-01-11T14:19:54;1;1;
60645;PMS5003;46462;32.608;-117.032;2024-01-11T14:22:25;3;2;
60645;PMS5003;46462;32.608;-117.032;2024-01-11T14:24:56;1;1;
60645;PMS5003;46462;32.608;-117.032;2024-01-11T14:27:27;2;2;
60645;PMS5003;46462;32.608;-117.032;2024-01-11T14:29:58;4;3;
60645;PMS5003;46462;32.608;-117.032;2024-01-11T14:32:28;2;2;
60645;PMS5003;46462;32.608;-117.032;2024-01-11T14:35:00;0;0;
60645;PMS5003;46462;32.608;-117.032;2024-01-11T14:37:30;3;3;
60645;PMS5003;46462;32.608;-117.032;2024-01-11T14:40:01;1;1;
60645;PMS5003;46462;32.608;-117.032;2024-01-11T14:42:32;2;2;
60645;PMS5003;46462;32.608;-117.032;2024-01-11T14:45:06;1;1;
60645;PMS5003;46462;32.608;-117.032;2024-01-11T14:47:36;4;2;
60645;PMS5003;46462;32.608;-117.032;2024-01-11T14:50:06;6;6;
60645;PMS5003;46462;32.608;-117.032;2024-01-11T14:52:36;2;1;
60645;PMS5003;46462;32.608;-117.032;2024-01-11T14:55:07;4;2;
60645;PMS5003;46462;32.608;-117.032;2024-01-11T14:57:38;4;3;
60645;PMS5003;46462;32.608;-117.032;2024-01-11T15:00:08;0;0;
60645;PMS5003;46462;32.608;-117.032;2024-01-11T15:02:39;0;0;
60645;PMS5003;46462;32.608;-117.032;2024-01-11T15:05:10;1;1;
60645;PMS5003;46462;32.608;-117.032;2024-01-11T15:07:41;0;0;
60645;PMS5003;46462;32.608;-117.032;2024-01-11T15:10:11;0;0;
60645;PMS5003;46462;32.608;-117.032;2024-01-11T15:12:42;0;0;
60645;PMS5003;46462;32.608;-117.032;2024-01-11T15:15:13;0;0;
60645;PMS5003;46462;32.608;-117.032;2024-01-11T15:17:44;1;1;
60645;PMS5003;46462;32.608;-117.032;2024-01-11T15:20:15;1;0;
60645;PMS5003;46462;32.608;-117.032;2024-01-11T15:22:45;1;1;
60645;PMS5003;46462;32.608;-117.032;2024-01-11T15:25:16;0;0;
60645;PMS5003;46462;32.608;-117.032;2024-01-11T15:27:47;2;0;
60645;PMS5003;46462;32.608;-117.032;2024-01-11T15:30:17;1;0;
60645;PMS5003;46462;32.608;-117.032;2024-01-11T15:32:48;1;1;
60645;PMS5003;46462;32.608;-117.032;2024-01-11T15:35:19;1;1;
60645;PMS5003;46462;32.608;-117.032;2024-01-11T15:37:50;1;1;
60645;PMS5003;46462;32.608;-117.032;2024-01-11T15:40:20;1;1;
60645;PMS5003;46462;32.608;-117.032;2024-01-11T15:42:51;0;0;
60645;PMS5003;46462;32.608;-117.032;2024-01-11T15:45:22;2;1;
60645;PMS5003;46462;32.608;-117.032;2024-01-11T15:47:53;2;1;
60645;PMS5003;46462;32.608;-117.032;2024-01-11T15:50:23;1;1;
60645;PMS5003;46462;32.608;-117.032;2024-01-11T15:52:54;0;0;
60645;PMS5003;46462;32.608;-117.032;2024-01-11T15:55:25;0;0;
60645;PMS5003;46462;32.608;-117.032;2024-01-11T15:57:56;2;0;
60645;PMS5003;46462;32.608;-117.032;2024-01-11T16:00:26;0;0;
60645;PMS5003;46462;32.608;-117.032;2024-01-11T16:02:57;0;0;
60645;PMS5003;46462;32.608;-117.032;2024-01-11T16:05:28;0;0;
60645;PMS5003;46462;32.608;-117.032;2024-01-11T16:07:59;1;1;
60645;PMS5003;46462;32.608;-117.032;2024-01-11T16:10:29;0;0;
60645;PMS5003;46462;32.608;-117.032;2024-01-11T16:13:00;1;0;
60645;PMS5003;46462;32.608;-117.032;2024-01-11T16:15:31;1;1;
60645;PMS5003;46462;32.608;-117.032;2024-01-11T16:18:01;0;0;
60645;PMS5003;46462;32.608;-117.032;2024-01-11T16:20:32;0;0;
60645;PMS5003;46462;32.608;-117.032;2024-01-11T16:23:03;0;0;
60645;PMS5003;46462;32.608;-117.032;2024-01-11T16:25:33;0;0;